PWSweather.com
Personal Weather Stations
Station Observations
79674
AfterstegDE 79674

AfterstegDE 79674

Lat: 47.84344, Lon: 7.92844

Elevation: 809

Station Type: Davis Vantage 2 Aktive

Latest ConditionsUpdated 5:17:05 AM GMT+01:01 Wednesday, Sep 2, 2015
Currently Today's Max Today's Min Today's Average
Temperature 47.3°F8.5°C 52.0°F11.1°C 47.3°F8.5°C 49.5°F9.7°C
Dew Point 45.9°F7.7°C 50.4°F10.2°C 45.9°F7.7°C 48.1°F8.9°C
Winds Calm Calm 2.0 mph NNW3.2 kmh NNW - 0.3 mph 0.5 kmh
Wind Gusts -- 4.0 mph6.4 kmh - -
Humidity 95% 95% 94% 95%
Pressure 30.02 in1016.6 mb 30.04 in1017.3 mb 30.02 in1016.6 mb -
Hour Temp Dew Point Humidity Winds Wind Gusts Pressure Precip Precip Rate Daily Precip Total
05:17 AM 47.3°F8.5°C 45.9°F7.7°C 95% Calm Calm -- 30.02 in1016.6 mb - 0.00 in0.0 mm 0.00 in0.0 mm
05:12 AM 47.5°F8.6°C 46.0°F7.8°C 95% 0.9 mph NNW1.4 kmh NNW -- 30.02 in1016.6 mb - 0.00 in0.0 mm 0.00 in0.0 mm
05:07 AM 47.5°F8.6°C 46.0°F7.8°C 95% 2.0 mph NNW3.2 kmh NNW 2.0 mph3.2 kmh 30.02 in1016.6 mb - 0.00 in0.0 mm 0.00 in0.0 mm
05:02 AM 47.5°F8.6°C 46.0°F7.8°C 95% 0.9 mph NNW1.4 kmh NNW 2.9 mph4.7 kmh 30.02 in1016.6 mb - 0.00 in0.0 mm 0.00 in0.0 mm
04:57 AM 47.7°F8.7°C 46.2°F7.9°C 95% Calm Calm 0.9 mph1.4 kmh 30.02 in1016.6 mb - 0.00 in0.0 mm 0.00 in0.0 mm
04:52 AM 47.7°F8.7°C 46.2°F7.9°C 95% Calm Calm -- 30.02 in1016.6 mb - 0.00 in0.0 mm 0.00 in0.0 mm
04:47 AM 47.7°F8.7°C 46.2°F7.9°C 95% Calm Calm -- 30.02 in1016.6 mb - 0.00 in0.0 mm 0.00 in0.0 mm
04:42 AM 47.7°F8.7°C 46.2°F7.9°C 95% Calm Calm 0.9 mph1.4 kmh 30.02 in1016.6 mb - 0.00 in0.0 mm 0.00 in0.0 mm
04:37 AM 47.8°F8.8°C 46.4°F8.0°C 95% Calm Calm -- 30.02 in1016.6 mb - 0.00 in0.0 mm 0.00 in0.0 mm
04:32 AM 47.8°F8.8°C 46.4°F8.0°C 95% Calm Calm -- 30.02 in1016.6 mb - 0.00 in0.0 mm 0.00 in0.0 mm
04:27 AM 47.8°F8.8°C 46.4°F8.0°C 95% 0.9 mph SE1.4 kmh SE -- 30.03 in1016.9 mb - 0.00 in0.0 mm 0.00 in0.0 mm
04:17 AM 48.0°F8.9°C 46.6°F8.1°C 95% 0.9 mph NNW1.4 kmh NNW 0.9 mph1.4 kmh 30.03 in1016.9 mb - 0.00 in0.0 mm 0.00 in0.0 mm
04:12 AM 47.8°F8.8°C 46.4°F8.0°C 95% Calm Calm 4.0 mph6.4 kmh 30.03 in1016.9 mb - 0.00 in0.0 mm 0.00 in0.0 mm
04:07 AM 47.8°F8.8°C 46.4°F8.0°C 95% 0.9 mph NW1.4 kmh NW -- 30.03 in1016.9 mb - 0.00 in0.0 mm 0.00 in0.0 mm
04:02 AM 48.0°F8.9°C 46.6°F8.1°C 95% 0.9 mph NW1.4 kmh NW -- 30.03 in1016.9 mb - 0.00 in0.0 mm 0.00 in0.0 mm
03:57 AM 48.2°F9.0°C 46.8°F8.2°C 95% Calm Calm 2.9 mph4.7 kmh 30.03 in1016.9 mb - 0.00 in0.0 mm 0.00 in0.0 mm
03:52 AM 48.4°F9.1°C 46.9°F8.3°C 95% Calm Calm -- 30.03 in1016.9 mb - 0.00 in0.0 mm 0.00 in0.0 mm
03:47 AM 48.6°F9.2°C 47.1°F8.4°C 95% Calm Calm -- 30.03 in1016.9 mb - 0.00 in0.0 mm 0.00 in0.0 mm
03:42 AM 48.6°F9.2°C 47.1°F8.4°C 95% 0.9 mph N1.4 kmh N -- 30.04 in1017.3 mb - 0.00 in0.0 mm 0.00 in0.0 mm
03:37 AM 48.6°F9.2°C 47.1°F8.4°C 95% 0.9 mph N1.4 kmh N -- 30.03 in1016.9 mb - 0.00 in0.0 mm 0.00 in0.0 mm
03:32 AM 48.6°F9.2°C 47.1°F8.4°C 95% 0.9 mph NW1.4 kmh NW -- 30.03 in1016.9 mb - 0.00 in0.0 mm 0.00 in0.0 mm
03:27 AM 48.7°F9.3°C 47.3°F8.5°C 95% 0.9 mph NW1.4 kmh NW 0.9 mph1.4 kmh 30.04 in1017.3 mb - 0.00 in0.0 mm 0.00 in0.0 mm
03:22 AM 48.7°F9.3°C 47.3°F8.5°C 95% Calm Calm 0.9 mph1.4 kmh 30.04 in1017.3 mb - 0.00 in0.0 mm 0.00 in0.0 mm
03:17 AM 48.7°F9.3°C 47.3°F8.5°C 95% Calm Calm -- 30.04 in1017.3 mb - 0.00 in0.0 mm 0.00 in0.0 mm
03:12 AM 48.9°F9.4°C 47.5°F8.6°C 95% Calm Calm -- 30.04 in1017.3 mb - 0.00 in0.0 mm 0.00 in0.0 mm
03:07 AM 48.9°F9.4°C 47.5°F8.6°C 95% Calm Calm -- 30.04 in1017.3 mb - 0.00 in0.0 mm 0.00 in0.0 mm
03:02 AM 48.9°F9.4°C 47.5°F8.6°C 95% Calm Calm 0.9 mph1.4 kmh 30.04 in1017.3 mb - 0.00 in0.0 mm 0.00 in0.0 mm
02:57 AM 49.1°F9.5°C 47.7°F8.7°C 95% Calm Calm -- 30.04 in1017.3 mb - 0.00 in0.0 mm 0.00 in0.0 mm
02:52 AM 49.3°F9.6°C 47.8°F8.8°C 95% Calm Calm -- 30.04 in1017.3 mb - 0.00 in0.0 mm 0.00 in0.0 mm
02:47 AM 49.3°F9.6°C 47.8°F8.8°C 95% 0.9 mph NW1.4 kmh NW -- 30.04 in1017.3 mb - 0.00 in0.0 mm 0.00 in0.0 mm
02:42 AM 49.5°F9.7°C 48.0°F8.9°C 95% Calm Calm 0.9 mph1.4 kmh 30.04 in1017.3 mb - 0.00 in0.0 mm 0.00 in0.0 mm
02:37 AM 49.5°F9.7°C 48.0°F8.9°C 95% Calm Calm -- 30.04 in1017.3 mb - 0.00 in0.0 mm 0.00 in0.0 mm
02:32 AM 49.6°F9.8°C 48.2°F9.0°C 95% Calm Calm -- 30.04 in1017.3 mb - 0.00 in0.0 mm 0.00 in0.0 mm
02:27 AM 49.6°F9.8°C 48.2°F9.0°C 95% Calm Calm -- 30.04 in1017.3 mb - 0.00 in0.0 mm 0.00 in0.0 mm
02:22 AM 49.6°F9.8°C 48.2°F9.0°C 95% Calm Calm -- 30.04 in1017.3 mb - 0.00 in0.0 mm 0.00 in0.0 mm
02:17 AM 49.8°F9.9°C 48.4°F9.1°C 95% Calm Calm -- 30.04 in1017.3 mb - 0.00 in0.0 mm 0.00 in0.0 mm
02:12 AM 49.8°F9.9°C 48.4°F9.1°C 95% Calm Calm -- 30.04 in1017.3 mb - 0.00 in0.0 mm 0.00 in0.0 mm
02:07 AM 50.0°F10.0°C 48.6°F9.2°C 95% Calm Calm -- 30.04 in1017.3 mb - 0.00 in0.0 mm 0.00 in0.0 mm
02:02 AM 50.2°F10.1°C 48.7°F9.3°C 95% Calm Calm -- 30.04 in1017.3 mb - 0.00 in0.0 mm 0.00 in0.0 mm
01:57 AM 50.2°F10.1°C 48.7°F9.3°C 95% 0.9 mph SE1.4 kmh SE -- 30.04 in1017.3 mb - 0.00 in0.0 mm 0.00 in0.0 mm
01:52 AM 50.4°F10.2°C 48.9°F9.4°C 95% 0.9 mph SE1.4 kmh SE -- 30.04 in1017.3 mb - 0.00 in0.0 mm 0.00 in0.0 mm
01:47 AM 50.4°F10.2°C 48.9°F9.4°C 95% Calm Calm 2.0 mph3.2 kmh 30.04 in1017.3 mb - 0.00 in0.0 mm 0.00 in0.0 mm
01:42 AM 50.4°F10.2°C 48.9°F9.4°C 95% Calm Calm -- 30.04 in1017.3 mb - 0.00 in0.0 mm 0.00 in0.0 mm
01:37 AM 50.5°F10.3°C 49.1°F9.5°C 95% Calm Calm -- 30.04 in1017.3 mb - 0.00 in0.0 mm 0.00 in0.0 mm
01:32 AM 50.5°F10.3°C 49.1°F9.5°C 95% Calm Calm -- 30.04 in1017.3 mb - 0.00 in0.0 mm 0.00 in0.0 mm
01:27 AM 50.7°F10.4°C 49.3°F9.6°C 95% Calm Calm -- 30.04 in1017.3 mb - 0.00 in0.0 mm 0.00 in0.0 mm
01:22 AM 50.7°F10.4°C 49.3°F9.6°C 95% Calm Calm -- 30.04 in1017.3 mb - 0.00 in0.0 mm 0.00 in0.0 mm
01:17 AM 50.7°F10.4°C 49.3°F9.6°C 95% Calm Calm -- 30.04 in1017.3 mb - 0.00 in0.0 mm 0.00 in0.0 mm
01:12 AM 50.9°F10.5°C 49.5°F9.7°C 95% Calm Calm -- 30.04 in1017.3 mb - 0.00 in0.0 mm 0.00 in0.0 mm
01:07 AM 50.9°F10.5°C 49.5°F9.7°C 95% Calm Calm 0.9 mph1.4 kmh 30.04 in1017.3 mb - 0.00 in0.0 mm 0.00 in0.0 mm
01:02 AM 51.1°F10.6°C 49.6°F9.8°C 95% Calm Calm -- 30.04 in1017.3 mb - 0.00 in0.0 mm 0.00 in0.0 mm
12:57 AM 51.1°F10.6°C 49.5°F9.7°C 94% Calm Calm -- 30.04 in1017.3 mb - 0.00 in0.0 mm 0.00 in0.0 mm
12:52 AM 51.3°F10.7°C 49.8°F9.9°C 95% Calm Calm -- 30.04 in1017.3 mb - 0.00 in0.0 mm 0.00 in0.0 mm
12:47 AM 51.3°F10.7°C 49.8°F9.9°C 95% Calm Calm -- 30.04 in1017.3 mb - 0.00 in0.0 mm 0.00 in0.0 mm
12:42 AM 51.3°F10.7°C 49.8°F9.9°C 95% Calm Calm -- 30.04 in1017.3 mb - 0.00 in0.0 mm 0.00 in0.0 mm
12:37 AM 51.4°F10.8°C 49.8°F9.9°C 94% 0.9 mph NNW1.4 kmh NNW -- 30.04 in1017.3 mb - 0.00 in0.0 mm 0.00 in0.0 mm
12:32 AM 51.4°F10.8°C 49.8°F9.9°C 94% 0.9 mph NNW1.4 kmh NNW -- 30.04 in1017.3 mb - 0.00 in0.0 mm 0.00 in0.0 mm
12:27 AM 51.4°F10.8°C 49.8°F9.9°C 94% 0.9 mph NNW1.4 kmh NNW 0.9 mph1.4 kmh 30.04 in1017.3 mb - 0.00 in0.0 mm 0.00 in0.0 mm
12:22 AM 51.6°F10.9°C 50.0°F10.0°C 94% 0.9 mph NNW1.4 kmh NNW 0.9 mph1.4 kmh 30.04 in1017.3 mb - 0.00 in0.0 mm 0.00 in0.0 mm
12:17 AM 51.6°F10.9°C 50.0°F10.0°C 94% 0.9 mph NNW1.4 kmh NNW 2.0 mph3.2 kmh 30.04 in1017.3 mb - 0.00 in0.0 mm 0.00 in0.0 mm
12:12 AM 51.8°F11.0°C 50.2°F10.1°C 94% Calm Calm 0.9 mph1.4 kmh 30.04 in1017.3 mb - 0.00 in0.0 mm 0.00 in0.0 mm
12:07 AM 51.8°F11.0°C 50.2°F10.1°C 94% Calm Calm -- 30.04 in1017.3 mb - 0.00 in0.0 mm 0.00 in0.0 mm
12:02 AM 52.0°F11.1°C 50.4°F10.2°C 94% Calm Calm -- 30.04 in1017.3 mb - 0.00 in0.0 mm 0.00 in0.0 mm